Radiosonde details



Informationen :

Serial : V3010047
Type : Vaisala RS41-SGP
Date of production : 24.07.2023
Frequency : 403.000MHz
Launchsite : Galeao
Nearest town : São Gonçalo, BR (12km)

Altitude (Max) : 10054m at 2026-09-06 00:02:38
Speed (Max) : 141km/h at altitude 10054m

Average speed : 71km/h
Average ascent rate : 6m/s
Average descent rate : 0m/s
Ascent rate (Max) : 10.2m/s
Descent rate (Max): 2.1m/s

First frame :
PU1XMG-16 at 2026-09-05 23:34:50 at altitude 330m (OG: 283m)
Last frame :
PU1XMG-16 at 2026-09-06 00:02:38 at altitude 10054m (OG: 9975m)

Flighttime : 27m48s
Ascent time : 27m48s
Descent time : 0s
Uptime : -
Killtimer : -

Distance (Straight line distance): 32km

Distance (Route):


Frames : 290


Measurement :

Temperature : -36.2°C
Humidity : 72.7%
Pressure : 282.7hPa


Vertical profile (SkewT) :


Elevation profile :



Receiving stations :


Receiver Frames First received Last received
PU1XMG-16 290 2026-09-05 23:34:50 2026-09-06 00:02:38

Share per receiver :



All frames :


Receiver Date Latitude Longitude Direction Speed Altitude Climb Temperature Humidity Pressure Voltage Killtimer Uptime BKT XDATA
PU1XMG-162026-09-06 00:02:38-22.83456-42.9373893°139km/h10054m5.9m/s-36.2°C72.7%282.7hPa0V00:00:0000:00:0000:00:00
PU1XMG-162026-09-06 00:02:31-22.83457-42.9390787°111km/h10018m7.9m/s-35.8°C73.6%284.2hPa0V00:00:0000:00:0000:00:00
PU1XMG-162026-09-06 00:02:24-22.83469-42.9406285°117km/h9989m7.3m/s-35.6°C74.5%285.4hPa0V00:00:0000:00:0000:00:00
PU1XMG-162026-09-06 00:02:18-22.83483-42.9422994°120km/h9960m5.7m/s-35.4°C75.9%286.6hPa0V00:00:0000:00:0000:00:00
PU1XMG-162026-09-06 00:02:12-22.83459-42.9440992°97km/h9921m5.5m/s-35.1°C76.2%288.2hPa0V00:00:0000:00:0000:00:00
PU1XMG-162026-09-06 00:02:06-22.83471-42.9458787°119km/h9879m7.2m/s-34.7°C72.5%289.9hPa0V00:00:0000:00:0000:00:00
PU1XMG-162026-09-06 00:02:00-22.83461-42.9476298°102km/h9835m2.1m/s-34.4°C73.8%291.7hPa0V00:00:0000:00:0000:00:00
PU1XMG-162026-09-06 00:01:57-22.83442-42.94906100°113km/h9810m7.9m/s-34.1°C72.1%292.7hPa0V00:00:0000:00:0000:00:00
PU1XMG-162026-09-06 00:01:54-22.83420-42.9508893°108km/h9776m6.2m/s-33.9°C72.9%294.2hPa0V00:00:0000:00:0000:00:00
PU1XMG-162026-09-06 00:01:48-22.83421-42.9522795°102km/h9751m4.8m/s-33.6°C73.6%295.2hPa0V00:00:0000:00:0000:00:00
PU1XMG-162026-09-06 00:01:42-22.83395-42.9540894°106km/h9712m8.9m/s-33.3°C71.5%296.8hPa0V00:00:0000:00:0000:00:00
PU1XMG-162026-09-06 00:01:35-22.83401-42.9554992°111km/h9681m5.7m/s-33.0°C72.1%298.3hPa0V00:00:0000:00:0000:00:00
PU1XMG-162026-09-06 00:01:29-22.83394-42.9574592°110km/h9639m7.2m/s-32.8°C71.7%299.9hPa0V00:00:0000:00:0000:00:00
PU1XMG-162026-09-06 00:01:25-22.83397-42.9588193°91km/h9605m4.5m/s-32.5°C70.6%301.4hPa0V00:00:0000:00:0000:00:00
PU1XMG-162026-09-06 00:01:18-22.83384-42.9603695°104km/h9569m4.7m/s-32.2°C69.9%303.0hPa0V00:00:0000:00:0000:00:00
PU1XMG-162026-09-06 00:01:14-22.83367-42.96184101°113km/h9540m7.1m/s-31.9°C69.4%304.2hPa0V00:00:0000:00:0000:00:00
PU1XMG-162026-09-06 00:01:08-22.83351-42.9635891°95km/h9511m8.0m/s-31.7°C69.2%305.4hPa0V00:00:0000:00:0000:00:00
PU1XMG-162026-09-06 00:01:01-22.83331-42.96483101°104km/h9477m5.4m/s-31.4°C69.1%306.9hPa0V00:00:0000:00:0000:00:00
PU1XMG-162026-09-06 00:00:55-22.83320-42.9663196°115km/h9440m6.9m/s-31.0°C67.1%308.5hPa0V00:00:0000:00:0000:00:00
PU1XMG-162026-09-06 00:00:49-22.83305-42.9679998°97km/h9411m3.9m/s-30.8°C68.3%309.7hPa0V00:00:0000:00:0000:00:00
PU1XMG-162026-09-06 00:00:46-22.83286-42.96969104°115km/h9386m3.8m/s-30.5°C66.4%310.9hPa0V00:00:0000:00:0000:00:00
PU1XMG-162026-09-06 00:00:41-22.83257-42.9716193°104km/h9362m5.7m/s-30.3°C63.8%311.9hPa0V00:00:0000:00:0000:00:00
PU1XMG-162026-09-06 00:00:31-22.83249-42.9729796°108km/h9332m4.6m/s-30.0°C63.6%313.2hPa0V00:00:0000:00:0000:00:00
PU1XMG-162026-09-06 00:00:26-22.83240-42.9747993°99km/h9301m5.8m/s-29.7°C62.1%314.6hPa0V00:00:0000:00:0000:00:00
PU1XMG-162026-09-06 00:00:21-22.83234-42.9761795°100km/h9277m5.2m/s-29.5°C61.8%315.6hPa0V00:00:0000:00:0000:00:00
PU1XMG-162026-09-06 00:00:19-22.83210-42.97746105°106km/h9248m4.5m/s-29.2°C60.1%316.9hPa0V00:00:0000:00:0000:00:00
PU1XMG-162026-09-06 00:00:11-22.83181-42.9789898°113km/h9222m5.7m/s-29.0°C59.4%318.1hPa0V00:00:0000:00:0000:00:00
PU1XMG-162026-09-06 00:00:05-22.83169-42.98077104°106km/h9190m5.8m/s-28.7°C58.5%319.4hPa0V00:00:0000:00:0000:00:00
PU1XMG-162026-09-05 23:59:58-22.83128-42.98251101°108km/h9159m5.2m/s-28.5°C58.7%320.8hPa0V00:00:0000:00:0000:00:00
PU1XMG-162026-09-05 23:59:54-22.83105-42.98388102°104km/h9117m9.6m/s-28.1°C57.7%322.6hPa0V00:00:0000:00:0000:00:00
PU1XMG-162026-09-05 23:59:49-22.83095-42.9851790°91km/h9082m6.8m/s-27.7°C56.8%324.2hPa0V00:00:0000:00:0000:00:00
PU1XMG-162026-09-05 23:59:42-22.83074-42.98692104°106km/h9043m6.4m/s-27.4°C56.3%326.0hPa0V00:00:0000:00:0000:00:00
PU1XMG-162026-09-05 23:59:36-22.83043-42.98860111°104km/h8999m8.3m/s-27.0°C55.1%328.0hPa0V00:00:0000:00:0000:00:00
PU1XMG-162026-09-05 23:59:32-22.83005-42.98986106°93km/h8968m2.3m/s-26.8°C55.5%329.4hPa0V00:00:0000:00:0000:00:00
PU1XMG-162026-09-05 23:59:26-22.82970-42.99113104°99km/h8924m6.2m/s-26.3°C54.9%331.4hPa0V00:00:0000:00:0000:00:00
PU1XMG-162026-09-05 23:59:20-22.82932-42.99269105°108km/h8889m5.7m/s-26.0°C55.0%333.0hPa0V00:00:0000:00:0000:00:00
PU1XMG-162026-09-05 23:59:09-22.82857-42.9956795°102km/h8825m9.4m/s-25.8°C58.6%336.1hPa0V00:00:0000:00:0000:00:00
PU1XMG-162026-09-05 23:59:04-22.82844-42.99712100°102km/h8795m4.2m/s-26.0°C82.0%337.4hPa0V00:00:0000:00:0000:00:00
PU1XMG-162026-09-05 23:58:59-22.82803-42.99872111°106km/h8758m3.2m/s-26.0°C90.8%339.1hPa0V00:00:0000:00:0000:00:00
PU1XMG-162026-09-05 23:58:53-22.82762-43.00010108°104km/h8736m3.9m/s-25.8°C93.7%340.3hPa0V00:00:0000:00:0000:00:00
PU1XMG-162026-09-05 23:58:47-22.82720-43.00175106°106km/h8712m5.2m/s-25.6°C95.1%341.4hPa0V00:00:0000:00:0000:00:00
PU1XMG-162026-09-05 23:58:42-22.82678-43.00318109°111km/h8691m5.5m/s-25.6°C95.7%342.3hPa0V00:00:0000:00:0000:00:00
PU1XMG-162026-09-05 23:58:38-22.82637-43.00463106°111km/h8673m3.1m/s-25.5°C94.5%343.2hPa0V00:00:0000:00:0000:00:00
PU1XMG-162026-09-05 23:58:33-22.82603-43.00606106°108km/h8651m5.0m/s-25.3°C93.2%344.1hPa0V00:00:0000:00:0000:00:00
PU1XMG-162026-09-05 23:58:26-22.82554-43.00794105°97km/h8622m4.7m/s-25.1°C95.0%345.6hPa0V00:00:0000:00:0000:00:00
PU1XMG-162026-09-05 23:58:19-22.82510-43.00940110°106km/h8595m6.1m/s-25.4°C99.2%346.8hPa0V00:00:0000:00:0000:00:00
PU1XMG-162026-09-05 23:58:15-22.82473-43.01081106°97km/h8563m8.6m/s-25.1°C98.7%348.3hPa0V00:00:0000:00:0000:00:00
PU1XMG-162026-09-05 23:58:09-22.82437-43.01207102°95km/h8530m7.4m/s-25.0°C99.9%349.9hPa0V00:00:0000:00:0000:00:00
PU1XMG-162026-09-05 23:58:03-22.82406-43.01351111°104km/h8488m7.2m/s-24.7°C99.2%351.9hPa0V00:00:0000:00:0000:00:00
PU1XMG-162026-09-05 23:57:58-22.82369-43.01476104°78km/h8458m6.2m/s-24.5°C99.1%353.5hPa0V00:00:0000:00:0000:00:00
PU1XMG-162026-09-05 23:57:52-22.82333-43.01603106°91km/h8415m7.9m/s-24.1°C99.3%355.6hPa0V00:00:0000:00:0000:00:00
PU1XMG-162026-09-05 23:57:40-22.82259-43.01881104°100km/h8327m7.6m/s-23.4°C94.8%359.7hPa0V00:00:0000:00:0000:00:00
PU1XMG-162026-09-05 23:57:27-22.82188-43.02173108°80km/h8235m5.5m/s-22.6°C90.2%364.4hPa0V00:00:0000:00:0000:00:00
PU1XMG-162026-09-05 23:57:22-22.82156-43.02292110°91km/h8201m7.6m/s-22.2°C87.7%366.0hPa0V00:00:0000:00:0000:00:00
PU1XMG-162026-09-05 23:57:16-22.82111-43.02428107°71km/h8170m6.2m/s-21.9°C85.6%367.7hPa0V00:00:0000:00:0000:00:00
PU1XMG-162026-09-05 23:57:11-22.82082-43.02549101°84km/h8133m7.4m/s-21.6°C83.6%369.5hPa0V00:00:0000:00:0000:00:00
PU1XMG-162026-09-05 23:57:05-22.82048-43.02692106°97km/h8096m4.3m/s-21.3°C82.8%371.2hPa0V00:00:0000:00:0000:00:00
PU1XMG-162026-09-05 23:56:58-22.82028-43.0283595°89km/h8053m6.5m/s-21.0°C80.2%373.4hPa0V00:00:0000:00:0000:00:00
PU1XMG-162026-09-05 23:56:54-22.82024-43.0295093°75km/h8024m7.8m/s-20.7°C77.8%374.8hPa0V00:00:0000:00:0000:00:00
PU1XMG-162026-09-05 23:56:48-22.81990-43.03073112°80km/h7982m7.5m/s-20.3°C78.1%377.0hPa0V00:00:0000:00:0000:00:00
PU1XMG-162026-09-05 23:56:43-22.81968-43.03182100°82km/h7954m6.0m/s-20.1°C76.5%378.4hPa0V00:00:0000:00:0000:00:00
PU1XMG-162026-09-05 23:56:37-22.81946-43.03293107°82km/h7930m4.0m/s-19.9°C76.3%379.7hPa0V00:00:0000:00:0000:00:00
PU1XMG-162026-09-05 23:56:31-22.81909-43.03417108°73km/h7900m5.6m/s-19.6°C73.9%381.3hPa0V00:00:0000:00:0000:00:00
PU1XMG-162026-09-05 23:56:26-22.81888-43.03518102°77km/h7875m4.5m/s-19.4°C74.4%382.5hPa0V00:00:0000:00:0000:00:00
PU1XMG-162026-09-05 23:56:22-22.81867-43.03633106°89km/h7852m5.3m/s-19.2°C73.3%383.7hPa0V00:00:0000:00:0000:00:00
PU1XMG-162026-09-05 23:56:15-22.81834-43.03753109°73km/h7809m6.0m/s-18.8°C70.7%385.8hPa0V00:00:0000:00:0000:00:00
PU1XMG-162026-09-05 23:56:10-22.81803-43.03856105°80km/h7784m5.2m/s-18.6°C70.2%387.0hPa0V00:00:0000:00:0000:00:00
PU1XMG-162026-09-05 23:56:04-22.81779-43.03972107°69km/h7756m7.0m/s-18.4°C70.0%388.6hPa0V00:00:0000:00:0000:00:00
PU1XMG-162026-09-05 23:55:58-22.81755-43.04093101°78km/h7720m4.1m/s-18.3°C75.1%390.5hPa0V00:00:0000:00:0000:00:00
PU1XMG-162026-09-05 23:55:54-22.81728-43.04198106°78km/h7693m6.0m/s-18.2°C75.6%391.9hPa0V00:00:0000:00:0000:00:00
PU1XMG-162026-09-05 23:55:49-22.81714-43.0431698°91km/h7663m8.3m/s-18.2°C69.3%393.5hPa0V00:00:0000:00:0000:00:00
PU1XMG-162026-09-05 23:55:42-22.81695-43.04439101°71km/h7629m7.5m/s-18.1°C56.6%395.2hPa0V00:00:0000:00:0000:00:00
PU1XMG-162026-09-05 23:55:37-22.81682-43.0454394°80km/h7603m6.4m/s-17.8°C53.3%396.7hPa0V00:00:0000:00:0000:00:00
PU1XMG-162026-09-05 23:55:31-22.81678-43.0466596°68km/h7575m6.1m/s-17.7°C46.4%398.1hPa0V00:00:0000:00:0000:00:00
PU1XMG-162026-09-05 23:55:25-22.81664-43.04773100°73km/h7547m5.9m/s-17.6°C43.0%399.6hPa0V00:00:0000:00:0000:00:00
PU1XMG-162026-09-05 23:55:14-22.81661-43.0499788°73km/h7492m5.6m/s-17.2°C52.0%402.6hPa0V00:00:0000:00:0000:00:00
PU1XMG-162026-09-05 23:55:08-22.81680-43.0512483°80km/h7466m6.1m/s-17.0°C56.1%404.0hPa0V00:00:0000:00:0000:00:00
PU1XMG-162026-09-05 23:55:04-22.81678-43.0522199°68km/h7434m6.8m/s-16.8°C63.6%405.6hPa0V00:00:0000:00:0000:00:00
PU1XMG-162026-09-05 23:54:58-22.81687-43.0531574°77km/h7408m7.1m/s-16.7°C62.1%407.0hPa0V00:00:0000:00:0000:00:00
PU1XMG-162026-09-05 23:54:52-22.81705-43.0544395°84km/h7370m8.9m/s-16.4°C57.9%409.1hPa0V00:00:0000:00:0000:00:00
PU1XMG-162026-09-05 23:54:46-22.81697-43.0558291°77km/h7334m4.7m/s-16.1°C56.3%411.1hPa0V00:00:0000:00:0000:00:00
PU1XMG-162026-09-05 23:54:41-22.81705-43.0570984°80km/h7306m4.7m/s-15.9°C51.2%412.7hPa0V00:00:0000:00:0000:00:00
PU1XMG-162026-09-05 23:54:35-22.81709-43.0581986°82km/h7280m7.5m/s-15.8°C43.2%414.1hPa0V00:00:0000:00:0000:00:00
PU1XMG-162026-09-05 23:54:30-22.81724-43.0593987°93km/h7250m7.2m/s-15.6°C38.5%415.6hPa0V00:00:0000:00:0000:00:00
PU1XMG-162026-09-05 23:54:24-22.81730-43.0608990°93km/h7215m6.2m/s-15.4°C26.9%417.5hPa0V00:00:0000:00:0000:00:00
PU1XMG-162026-09-05 23:54:19-22.81746-43.0624779°95km/h7184m6.5m/s-15.2°C23.2%419.2hPa0V00:00:0000:00:0000:00:00
PU1XMG-162026-09-05 23:54:12-22.81778-43.0639581°89km/h7157m5.4m/s-15.1°C22.6%420.8hPa0V00:00:0000:00:0000:00:00
PU1XMG-162026-09-05 23:54:08-22.81788-43.0652089°95km/h7130m6.1m/s-15.1°C24.3%422.3hPa0V00:00:0000:00:0000:00:00
PU1XMG-162026-09-05 23:54:02-22.81798-43.0667588°91km/h7094m7.1m/s-14.9°C24.5%424.2hPa0V00:00:0000:00:0000:00:00
PU1XMG-162026-09-05 23:53:57-22.81804-43.0678883°82km/h7065m5.7m/s-14.7°C23.7%425.7hPa0V00:00:0000:00:0000:00:00
PU1XMG-162026-09-05 23:53:50-22.81817-43.0691690°82km/h7033m4.7m/s-14.3°C23.3%427.6hPa0V00:00:0000:00:0000:00:00
PU1XMG-162026-09-05 23:53:45-22.81816-43.0703391°84km/h7013m5.8m/s-14.2°C25.5%429.0hPa0V00:00:0000:00:0000:00:00
PU1XMG-162026-09-05 23:53:39-22.81829-43.0716885°91km/h6981m6.6m/s-13.9°C25.3%430.7hPa0V00:00:0000:00:0000:00:00
PU1XMG-162026-09-05 23:53:34-22.81839-43.0729586°84km/h6956m6.2m/s-13.7°C27.6%432.1hPa0V00:00:0000:00:0000:00:00
PU1XMG-162026-09-05 23:53:28-22.81836-43.0742897°80km/h6921m5.4m/s-13.4°C30.6%434.1hPa0V00:00:0000:00:0000:00:00
PU1XMG-162026-09-05 23:53:23-22.81843-43.0753282°80km/h6894m4.6m/s-13.2°C34.2%435.8hPa0V00:00:0000:00:0000:00:00
PU1XMG-162026-09-05 23:53:17-22.81853-43.0764988°62km/h6859m3.6m/s-13.0°C29.4%437.6hPa0V00:00:0000:00:0000:00:00
PU1XMG-162026-09-05 23:53:12-22.81861-43.0775188°89km/h6833m8.0m/s-12.8°C25.9%439.0hPa0V00:00:0000:00:0000:00:00
PU1XMG-162026-09-05 23:53:06-22.81861-43.0788989°82km/h6794m5.4m/s-12.4°C23.2%441.1hPa0V00:00:0000:00:0000:00:00
PU1XMG-162026-09-05 23:53:00-22.81865-43.0802482°77km/h6759m6.5m/s-12.1°C22.6%443.2hPa0V00:00:0000:00:0000:00:00
PU1XMG-162026-09-05 23:52:55-22.81875-43.0813386°86km/h6727m4.8m/s-11.8°C22.7%445.1hPa0V00:00:0000:00:0000:00:00
PU1XMG-162026-09-05 23:52:50-22.81890-43.0824282°78km/h6699m6.4m/s-11.6°C22.7%446.8hPa0V00:00:0000:00:0000:00:00
PU1XMG-162026-09-05 23:52:44-22.81907-43.0837385°82km/h6665m5.9m/s-11.3°C23.4%448.7hPa0V00:00:0000:00:0000:00:00
PU1XMG-162026-09-05 23:52:39-22.81927-43.0851782°84km/h6635m4.4m/s-11.0°C24.0%450.4hPa0V00:00:0000:00:0000:00:00
PU1XMG-162026-09-05 23:52:33-22.81941-43.0862785°82km/h6608m6.9m/s-11.1°C26.2%452.1hPa0V00:00:0000:00:0000:00:00
PU1XMG-162026-09-05 23:52:29-22.81956-43.0873183°75km/h6581m5.8m/s-10.9°C24.6%453.7hPa0V00:00:0000:00:0000:00:00
PU1XMG-162026-09-05 23:52:22-22.81978-43.0885978°89km/h6546m5.7m/s-10.6°C24.5%455.8hPa0V00:00:0000:00:0000:00:00
PU1XMG-162026-09-05 23:52:16-22.82005-43.0900982°88km/h6514m6.5m/s-10.3°C24.9%457.5hPa0V00:00:0000:00:0000:00:00
PU1XMG-162026-09-05 23:52:11-22.82026-43.0914884°88km/h6479m3.6m/s-10.0°C25.9%459.8hPa0V00:00:0000:00:0000:00:00
PU1XMG-162026-09-05 23:52:05-22.82044-43.0926382°82km/h6454m5.8m/s-9.8°C25.4%461.2hPa0V00:00:0000:00:0000:00:00
PU1XMG-162026-09-05 23:51:59-22.82054-43.0940292°91km/h6422m5.1m/s-9.6°C24.8%463.1hPa0V00:00:0000:00:0000:00:00
PU1XMG-162026-09-05 23:51:54-22.82058-43.0952485°86km/h6400m6.5m/s-9.4°C25.9%464.5hPa0V00:00:0000:00:0000:00:00
PU1XMG-162026-09-05 23:51:49-22.82068-43.0964889°86km/h6364m4.6m/s-9.1°C26.2%466.6hPa0V00:00:0000:00:0000:00:00
PU1XMG-162026-09-05 23:51:44-22.82067-43.0976388°84km/h6339m6.5m/s-8.9°C26.5%468.1hPa0V00:00:0000:00:0000:00:00
PU1XMG-162026-09-05 23:51:38-22.82082-43.0989984°80km/h6308m6.5m/s-8.8°C27.3%470.1hPa0V00:00:0000:00:0000:00:00
PU1XMG-162026-09-05 23:51:32-22.82090-43.1004089°84km/h6282m6.0m/s-8.8°C30.1%471.9hPa0V00:00:0000:00:0000:00:00
PU1XMG-162026-09-05 23:51:27-22.82103-43.1015884°86km/h6252m5.9m/s-9.1°C42.7%473.5hPa0V00:00:0000:00:0000:00:00
PU1XMG-162026-09-05 23:51:21-22.82117-43.1029380°77km/h6219m5.2m/s-9.0°C45.2%475.6hPa0V00:00:0000:00:0000:00:00
PU1XMG-162026-09-05 23:51:16-22.82131-43.1041090°86km/h6191m6.0m/s-9.1°C55.7%477.1hPa0V00:00:0000:00:0000:00:00
PU1XMG-162026-09-05 23:51:10-22.82140-43.1054690°88km/h6151m6.1m/s-9.1°C63.5%479.7hPa0V00:00:0000:00:0000:00:00
PU1XMG-162026-09-05 23:51:05-22.82126-43.1064799°62km/h6113m7.6m/s-9.0°C84.7%481.8hPa0V00:00:0000:00:0000:00:00
PU1XMG-162026-09-05 23:50:59-22.82125-43.1075291°69km/h6079m5.6m/s-9.7°C0%483.9hPa0V00:00:0000:00:0000:00:00
PU1XMG-162026-09-05 23:50:54-22.82119-43.1085194°82km/h6055m4.8m/s-9.5°C0%485.6hPa0V00:00:0000:00:0000:00:00
PU1XMG-162026-09-05 23:50:48-22.82113-43.1098395°60km/h6023m7.0m/s-9.3°C0%487.5hPa0V00:00:0000:00:0000:00:00
PU1XMG-162026-09-05 23:50:43-22.82105-43.1105993°69km/h5991m6.3m/s-9.1°C0%489.6hPa0V00:00:0000:00:0000:00:00
PU1XMG-162026-09-05 23:50:38-22.82082-43.11176114°60km/h5952m5.7m/s-8.8°C0%492.2hPa0V00:00:0000:00:0000:00:00
PU1XMG-162026-09-05 23:50:32-22.82058-43.1126899°84km/h5919m6.5m/s-8.6°C0%494.3hPa0V00:00:0000:00:0000:00:00
PU1XMG-162026-09-05 23:50:26-22.82038-43.11395101°64km/h5880m5.7m/s-8.4°C0%496.8hPa0V00:00:0000:00:0000:00:00
PU1XMG-162026-09-05 23:50:15-22.82018-43.11606109°78km/h5790m8.6m/s-7.9°C98.8%502.4hPa0V00:00:0000:00:0000:00:00
PU1XMG-162026-09-05 23:50:10-22.81980-43.11703113°77km/h5755m7.2m/s-7.6°C98.0%504.5hPa0V00:00:0000:00:0000:00:00
PU1XMG-162026-09-05 23:50:05-22.81970-43.1182187°69km/h5714m8.4m/s-7.3°C97.6%507.2hPa0V00:00:0000:00:0000:00:00
PU1XMG-162026-09-05 23:49:58-22.81957-43.1192897°73km/h5674m7.5m/s-7.0°C97.1%509.9hPa0V00:00:0000:00:0000:00:00
PU1XMG-162026-09-05 23:49:53-22.81949-43.12032107°75km/h5638m5.6m/s-6.8°C96.9%512.1hPa0V00:00:0000:00:0000:00:00
PU1XMG-162026-09-05 23:49:48-22.81919-43.12127102°75km/h5607m5.4m/s-6.6°C95.7%514.2hPa0V00:00:0000:00:0000:00:00
PU1XMG-162026-09-05 23:49:42-22.81904-43.1224599°62km/h5569m4.5m/s-6.3°C95.7%516.6hPa0V00:00:0000:00:0000:00:00
PU1XMG-162026-09-05 23:49:36-22.81884-43.12353104°64km/h5530m3.5m/s-6.1°C97.3%519.2hPa0V00:00:0000:00:0000:00:00
PU1XMG-162026-09-05 23:49:30-22.81853-43.12459109°68km/h5487m6.4m/s-5.8°C95.1%522.0hPa0V00:00:0000:00:0000:00:00
PU1XMG-162026-09-05 23:49:25-22.81833-43.12562104°80km/h5460m8.2m/s-5.6°C93.5%524.0hPa0V00:00:0000:00:0000:00:00
PU1XMG-162026-09-05 23:49:19-22.81824-43.1267990°73km/h5423m6.9m/s-5.6°C100.0%526.3hPa0V00:00:0000:00:0000:00:00
PU1XMG-162026-09-05 23:49:14-22.81809-43.12768108°57km/h5396m5.5m/s-5.4°C97.3%528.3hPa0V00:00:0000:00:0000:00:00
PU1XMG-162026-09-05 23:49:08-22.81785-43.12875111°80km/h5362m7.6m/s-5.1°C95.7%530.6hPa0V00:00:0000:00:0000:00:00
PU1XMG-162026-09-05 23:49:02-22.81763-43.1299591°75km/h5327m8.6m/s-5.0°C98.9%532.8hPa0V00:00:0000:00:0000:00:00
PU1XMG-162026-09-05 23:48:57-22.81751-43.1310996°71km/h5293m9.3m/s-4.7°C97.5%535.2hPa0V00:00:0000:00:0000:00:00
PU1XMG-162026-09-05 23:48:51-22.81727-43.13223112°66km/h5253m9.8m/s-4.5°C97.2%537.8hPa0V00:00:0000:00:0000:00:00
PU1XMG-162026-09-05 23:48:46-22.81712-43.13312102°75km/h5222m6.8m/s-4.3°C97.1%539.9hPa0V00:00:0000:00:0000:00:00
PU1XMG-162026-09-05 23:48:39-22.81674-43.13413107°57km/h5194m5.0m/s-4.1°C97.4%541.9hPa0V00:00:0000:00:0000:00:00
PU1XMG-162026-09-05 23:48:33-22.81660-43.13527106°78km/h5172m5.1m/s-3.9°C94.1%543.6hPa0V00:00:0000:00:0000:00:00
PU1XMG-162026-09-05 23:48:28-22.81614-43.13635114°69km/h5142m6.7m/s-3.6°C93.1%545.6hPa0V00:00:0000:00:0000:00:00
PU1XMG-162026-09-05 23:48:22-22.81594-43.13735101°86km/h5112m5.9m/s-3.5°C94.9%547.6hPa0V00:00:0000:00:0000:00:00
PU1XMG-162026-09-05 23:48:17-22.81574-43.13836106°64km/h5089m4.5m/s-3.4°C95.0%549.1hPa0V00:00:0000:00:0000:00:00
PU1XMG-162026-09-05 23:48:11-22.81536-43.13945103°75km/h5056m5.1m/s-3.2°C95.1%551.6hPa0V00:00:0000:00:0000:00:00
PU1XMG-162026-09-05 23:48:05-22.81517-43.14044112°58km/h5020m5.8m/s-2.9°C93.2%553.9hPa0V00:00:0000:00:0000:00:00
PU1XMG-162026-09-05 23:48:01-22.81486-43.14138103°80km/h4994m5.0m/s-2.7°C93.7%555.9hPa0V00:00:0000:00:0000:00:00
PU1XMG-162026-09-05 23:47:55-22.81469-43.1424299°73km/h4957m8.8m/s-2.6°C97.1%558.3hPa0V00:00:0000:00:0000:00:00
PU1XMG-162026-09-05 23:47:49-22.81459-43.14362104°82km/h4922m6.3m/s-2.5°C98.1%560.7hPa0V00:00:0000:00:0000:00:00
PU1XMG-162026-09-05 23:47:43-22.81433-43.1448896°80km/h4892m6.3m/s-2.3°C98.3%562.9hPa0V00:00:0000:00:0000:00:00
PU1XMG-162026-09-05 23:47:38-22.81421-43.1460095°78km/h4866m5.7m/s-2.1°C98.5%564.7hPa0V00:00:0000:00:0000:00:00
PU1XMG-162026-09-05 23:47:32-22.81412-43.14729103°80km/h4830m6.4m/s-2.0°C99.0%567.2hPa0V00:00:0000:00:0000:00:00
PU1XMG-162026-09-05 23:47:28-22.81395-43.14816100°62km/h4802m6.9m/s-1.8°C98.0%569.1hPa0V00:00:0000:00:0000:00:00
PU1XMG-162026-09-05 23:47:22-22.81372-43.14914107°78km/h4769m5.5m/s-1.8°C0%571.6hPa0V00:00:0000:00:0000:00:00
PU1XMG-162026-09-05 23:47:16-22.81339-43.15034111°77km/h4741m5.6m/s-1.6°C0%573.6hPa0V00:00:0000:00:0000:00:00
PU1XMG-162026-09-05 23:47:11-22.81312-43.1514399°84km/h4719m4.5m/s-1.5°C0%575.1hPa0V00:00:0000:00:0000:00:00
PU1XMG-162026-09-05 23:47:07-22.81298-43.1526397°91km/h4694m5.2m/s-1.4°C0%576.9hPa0V00:00:0000:00:0000:00:00
PU1XMG-162026-09-05 23:47:00-22.81286-43.15379100°62km/h4663m5.4m/s-1.3°C99.8%579.3hPa0V00:00:0000:00:0000:00:00
PU1XMG-162026-09-05 23:46:54-22.81259-43.15499104°84km/h4634m7.0m/s-1.1°C99.1%581.3hPa0V00:00:0000:00:0000:00:00
PU1XMG-162026-09-05 23:46:49-22.81247-43.15607102°75km/h4606m5.8m/s-0.9°C97.6%583.2hPa0V00:00:0000:00:0000:00:00
PU1XMG-162026-09-05 23:46:44-22.81220-43.15699102°58km/h4577m4.2m/s0°C0%585.2hPa0V00:00:0000:00:0000:00:00
PU1XMG-162026-09-05 23:46:38-22.81211-43.1580997°77km/h4545m5.5m/s0°C0%587.6hPa0V00:00:0000:00:0000:00:00
PU1XMG-162026-09-05 23:46:32-22.81194-43.15927106°69km/h4504m8.1m/s-0.7°C89.6%590.9hPa0V00:00:0000:00:0000:00:00
PU1XMG-162026-09-05 23:46:26-22.81180-43.1604391°80km/h4469m7.2m/s-77.8°C0%593.4hPa0V00:00:0000:00:0000:00:00
PU1XMG-162026-09-05 23:46:21-22.81180-43.1614097°73km/h4439m5.6m/s0°C0%595.7hPa0V00:00:0000:00:0000:00:00
PU1XMG-162026-09-05 23:46:16-22.81177-43.1625290°80km/h4410m6.5m/s0°C0%597.9hPa0V00:00:0000:00:0000:00:00
PU1XMG-162026-09-05 23:46:12-22.81171-43.1636291°82km/h4383m6.7m/s0°C0%600.1hPa0V00:00:0000:00:0000:00:00
PU1XMG-162026-09-05 23:46:06-22.81169-43.1648994°86km/h4345m4.8m/s0°C0%603.0hPa0V00:00:0000:00:0000:00:00
PU1XMG-162026-09-05 23:46:00-22.81168-43.1661393°95km/h4307m7.4m/s0°C0%605.7hPa0V00:00:0000:00:0000:00:00
PU1XMG-162026-09-05 23:45:55-22.81169-43.1672782°75km/h4279m5.2m/s0°C0%607.7hPa0V00:00:0000:00:0000:00:00
PU1XMG-162026-09-05 23:45:50-22.81179-43.1684293°91km/h4247m6.2m/s0°C0%610.0hPa0V00:00:0000:00:0000:00:00
PU1XMG-162026-09-05 23:45:44-22.81174-43.1697789°82km/h4209m8.0m/s-77.8°C0%613.2hPa0V00:00:0000:00:0000:00:00
PU1XMG-162026-09-05 23:45:39-22.81181-43.1708991°88km/h4170m5.4m/s-77.8°C0%616.1hPa0V00:00:0000:00:0000:00:00
PU1XMG-162026-09-05 23:45:33-22.81179-43.1721882°71km/h4136m4.5m/s1.1°C99.7%618.6hPa0V00:00:0000:00:0000:00:00
PU1XMG-162026-09-05 23:45:28-22.81186-43.1731996°75km/h4106m5.5m/s1.3°C99.1%620.9hPa0V00:00:0000:00:0000:00:00
PU1XMG-162026-09-05 23:45:22-22.81188-43.1744892°78km/h4065m7.7m/s1.7°C97.5%624.2hPa0V00:00:0000:00:0000:00:00
PU1XMG-162026-09-05 23:45:17-22.81190-43.1754784°80km/h4034m6.1m/s-77.8°C0%626.5hPa0V00:00:0000:00:0000:00:00
PU1XMG-162026-09-05 23:45:11-22.81194-43.1767686°71km/h3994m6.2m/s-77.8°C0%629.6hPa0V00:00:0000:00:0000:00:00
PU1XMG-162026-09-05 23:45:05-22.81206-43.1781292°88km/h3957m7.4m/s2.9°C94.1%632.5hPa0V00:00:0000:00:0000:00:00
PU1XMG-162026-09-05 23:45:00-22.81203-43.1791185°60km/h3926m6.4m/s-77.8°C0%634.9hPa0V00:00:0000:00:0000:00:00
PU1XMG-162026-09-05 23:44:55-22.81212-43.1800492°75km/h3894m6.5m/s-77.8°C0%637.3hPa0V00:00:0000:00:0000:00:00
PU1XMG-162026-09-05 23:44:50-22.81212-43.1810292°77km/h3855m7.5m/s2.9°C98.6%640.4hPa0V00:00:0000:00:0000:00:00
PU1XMG-162026-09-05 23:44:44-22.81214-43.1822292°77km/h3812m7.8m/s-77.8°C0%643.7hPa0V00:00:0000:00:0000:00:00
PU1XMG-162026-09-05 23:44:38-22.81221-43.1835092°80km/h3771m7.0m/s0°C0%647.0hPa0V00:00:0000:00:0000:00:00
PU1XMG-162026-09-05 23:44:33-22.81217-43.1844587°58km/h3743m5.9m/s0°C0%649.1hPa0V00:00:0000:00:0000:00:00
PU1XMG-162026-09-05 23:44:27-22.81236-43.1856383°88km/h3707m6.9m/s3.8°C98.0%651.9hPa0V00:00:0000:00:0000:00:00
PU1XMG-162026-09-05 23:44:22-22.81246-43.1869590°69km/h3674m6.7m/s5.2°C90.6%654.8hPa0V00:00:0000:00:0000:00:00
PU1XMG-162026-09-05 23:44:16-22.81252-43.1879188°68km/h3636m7.9m/s4.3°C97.8%657.8hPa0V00:00:0000:00:0000:00:00
PU1XMG-162026-09-05 23:44:10-22.81260-43.1892188°77km/h3592m7.1m/s5.6°C90.1%661.3hPa0V00:00:0000:00:0000:00:00
PU1XMG-162026-09-05 23:44:04-22.81280-43.1904183°84km/h3552m4.6m/s-77.8°C0%664.5hPa0V00:00:0000:00:0000:00:00
PU1XMG-162026-09-05 23:43:58-22.81282-43.1916887°64km/h3514m5.4m/s0°C0%667.5hPa0V00:00:0000:00:0000:00:00
PU1XMG-162026-09-05 23:43:53-22.81290-43.1925686°62km/h3481m7.6m/s0°C0%670.2hPa0V00:00:0000:00:0000:00:00
PU1XMG-162026-09-05 23:43:48-22.81306-43.1934884°77km/h3454m6.0m/s0°C0%672.5hPa0V00:00:0000:00:0000:00:00
PU1XMG-162026-09-05 23:43:43-22.81309-43.1944685°69km/h3424m6.8m/s0°C0%675.1hPa0V00:00:0000:00:0000:00:00
PU1XMG-162026-09-05 23:43:37-22.81323-43.1957189°68km/h3386m5.5m/s0°C0%678.2hPa0V00:00:0000:00:0000:00:00
PU1XMG-162026-09-05 23:43:32-22.81324-43.1966486°69km/h3356m5.6m/s6.0°C98.4%680.7hPa0V00:00:0000:00:0000:00:00
PU1XMG-162026-09-05 23:43:22-22.81330-43.1983996°66km/h3290m5.1m/s6.5°C96.5%686.1hPa0V00:00:0000:00:0000:00:00
PU1XMG-162026-09-05 23:43:16-22.81332-43.1994796°60km/h3249m4.8m/s6.8°C94.3%689.7hPa0V00:00:0000:00:0000:00:00
PU1XMG-162026-09-05 23:43:11-22.81335-43.2002380°62km/h3219m6.5m/s7.1°C92.1%692.1hPa0V00:00:0000:00:0000:00:00
PU1XMG-162026-09-05 23:43:06-22.81340-43.2011899°69km/h3191m6.5m/s7.3°C90.3%694.6hPa0V00:00:0000:00:0000:00:00
PU1XMG-162026-09-05 23:43:01-22.81331-43.2019788°53km/h3162m5.9m/s7.6°C89.5%696.9hPa0V00:00:0000:00:0000:00:00
PU1XMG-162026-09-05 23:42:56-22.81334-43.2027794°55km/h3133m5.7m/s7.7°C89.6%699.3hPa0V00:00:0000:00:0000:00:00
PU1XMG-162026-09-05 23:42:51-22.81338-43.2035783°68km/h3103m6.9m/s7.7°C88.5%701.8hPa0V00:00:0000:00:0000:00:00
PU1XMG-162026-09-05 23:42:46-22.81336-43.2046299°51km/h3069m5.7m/s7.6°C94.2%704.6hPa0V00:00:0000:00:0000:00:00
PU1XMG-162026-09-05 23:42:40-22.81336-43.2053694°64km/h3043m4.8m/s7.8°C94.0%706.9hPa0V00:00:0000:00:0000:00:00
PU1XMG-162026-09-05 23:42:35-22.81327-43.2061391°47km/h3016m4.8m/s8.0°C92.9%709.1hPa0V00:00:0000:00:0000:00:00
PU1XMG-162026-09-05 23:42:30-22.81332-43.2068792°53km/h2989m5.8m/s8.2°C91.2%711.4hPa0V00:00:0000:00:0000:00:00
PU1XMG-162026-09-05 23:42:19-22.81324-43.2085493°51km/h2927m6.2m/s8.8°C87.9%716.7hPa0V00:00:0000:00:0000:00:00
PU1XMG-162026-09-05 23:42:14-22.81330-43.2094795°60km/h2896m4.5m/s9.1°C86.6%719.4hPa0V00:00:0000:00:0000:00:00
PU1XMG-162026-09-05 23:42:07-22.81329-43.2104390°49km/h2862m4.6m/s9.4°C83.9%722.2hPa0V00:00:0000:00:0000:00:00
PU1XMG-162026-09-05 23:42:01-22.81327-43.2113094°58km/h2830m7.9m/s9.7°C83.3%725.1hPa0V00:00:0000:00:0000:00:00
PU1XMG-162026-09-05 23:41:56-22.81325-43.2120281°55km/h2802m7.8m/s9.9°C82.7%727.5hPa0V00:00:0000:00:0000:00:00
PU1XMG-162026-09-05 23:41:50-22.81323-43.21295101°46km/h2770m2.9m/s10.3°C80.1%730.4hPa0V00:00:0000:00:0000:00:00
PU1XMG-162026-09-05 23:41:46-22.81325-43.2136486°66km/h2746m4.4m/s10.5°C79.1%732.6hPa0V00:00:0000:00:0000:00:00
PU1XMG-162026-09-05 23:41:39-22.81318-43.2146998°49km/h2722m4.3m/s10.7°C79.3%734.8hPa0V00:00:0000:00:0000:00:00
PU1XMG-162026-09-05 23:41:35-22.81316-43.2154194°58km/h2699m5.1m/s10.9°C78.0%736.8hPa0V00:00:0000:00:0000:00:00
PU1XMG-162026-09-05 23:41:29-22.81318-43.2163286°66km/h2668m4.8m/s11.2°C76.6%739.7hPa0V00:00:0000:00:0000:00:00
PU1XMG-162026-09-05 23:41:23-22.81311-43.21719104°53km/h2645m5.5m/s11.4°C75.9%741.6hPa0V00:00:0000:00:0000:00:00
PU1XMG-162026-09-05 23:41:17-22.81300-43.21794101°53km/h2618m6.3m/s11.6°C75.6%743.9hPa0V00:00:0000:00:0000:00:00
PU1XMG-162026-09-05 23:41:12-22.81297-43.2187894°62km/h2592m6.7m/s11.9°C74.0%746.5hPa0V00:00:0000:00:0000:00:00
PU1XMG-162026-09-05 23:41:07-22.81288-43.21973102°51km/h2558m5.6m/s12.2°C72.5%749.5hPa0V00:00:0000:00:0000:00:00
PU1XMG-162026-09-05 23:41:02-22.81288-43.2204793°66km/h2534m5.9m/s12.4°C71.2%751.7hPa0V00:00:0000:00:0000:00:00
PU1XMG-162026-09-05 23:40:55-22.81267-43.22141108°53km/h2505m4.4m/s12.6°C71.9%754.3hPa0V00:00:0000:00:0000:00:00
PU1XMG-162026-09-05 23:40:50-22.81250-43.22216102°58km/h2476m10.2m/s12.9°C71.4%756.6hPa0V00:00:0000:00:0000:00:00
PU1XMG-162026-09-05 23:40:45-22.81249-43.2229091°60km/h2441m4.6m/s13.1°C70.7%759.8hPa0V00:00:0000:00:0000:00:00
PU1XMG-162026-09-05 23:40:39-22.81241-43.2238090°55km/h2408m4.9m/s13.4°C70.1%762.6hPa0V00:00:0000:00:0000:00:00
PU1XMG-162026-09-05 23:40:34-22.81233-43.22467106°60km/h2385m6.4m/s13.5°C70.4%764.8hPa0V00:00:0000:00:0000:00:00
PU1XMG-162026-09-05 23:40:29-22.81223-43.2254195°62km/h2356m4.3m/s13.8°C70.0%767.6hPa0V00:00:0000:00:0000:00:00
PU1XMG-162026-09-05 23:40:24-22.81203-43.22634100°49km/h2320m4.4m/s14.1°C68.8%770.7hPa0V00:00:0000:00:0000:00:00
PU1XMG-162026-09-05 23:40:17-22.81193-43.22736106°66km/h2286m4.6m/s14.0°C71.3%773.8hPa0V00:00:0000:00:0000:00:00
PU1XMG-162026-09-05 23:40:12-22.81177-43.2280992°47km/h2261m6.3m/s14.1°C71.6%776.0hPa0V00:00:0000:00:0000:00:00
PU1XMG-162026-09-05 23:40:00-22.81154-43.2301196°60km/h2188m5.9m/s14.1°C74.4%782.9hPa0V00:00:0000:00:0000:00:00
PU1XMG-162026-09-05 23:39:55-22.81153-43.2309995°69km/h2160m7.2m/s14.3°C74.2%785.7hPa0V00:00:0000:00:0000:00:00
PU1XMG-162026-09-05 23:39:49-22.81140-43.2319094°53km/h2124m3.8m/s14.4°C73.9%788.7hPa0V00:00:0000:00:0000:00:00
PU1XMG-162026-09-05 23:39:45-22.81137-43.2326993°58km/h2096m8.2m/s14.6°C71.3%791.4hPa0V00:00:0000:00:0000:00:00
PU1XMG-162026-09-05 23:39:38-22.81133-43.2337494°58km/h2059m7.1m/s14.8°C70.5%794.9hPa0V00:00:0000:00:0000:00:00
PU1XMG-162026-09-05 23:39:32-22.81129-43.2346988°53km/h2024m9.1m/s15.1°C69.4%798.2hPa0V00:00:0000:00:0000:00:00
PU1XMG-162026-09-05 23:39:27-22.81119-43.23549100°66km/h1989m7.7m/s15.3°C68.7%801.3hPa0V00:00:0000:00:0000:00:00
PU1XMG-162026-09-05 23:39:23-22.81107-43.23635106°58km/h1958m5.6m/s15.6°C67.7%804.2hPa0V00:00:0000:00:0000:00:00
PU1XMG-162026-09-05 23:39:22-22.81100-43.2372397°58km/h1925m8.1m/s15.9°C66.3%807.3hPa0V00:00:0000:00:0000:00:00
PU1XMG-162026-09-05 23:39:21-22.81076-43.23826104°58km/h1889m6.0m/s16.1°C64.8%810.8hPa0V00:00:0000:00:0000:00:00
PU1XMG-162026-09-05 23:39:05-22.81067-43.23904102°60km/h1863m5.3m/s16.2°C64.2%813.2hPa0V00:00:0000:00:0000:00:00
PU1XMG-162026-09-05 23:39:00-22.81051-43.2399399°60km/h1830m5.4m/s16.2°C65.7%816.6hPa0V00:00:0000:00:0000:00:00
PU1XMG-162026-09-05 23:38:54-22.81034-43.2407399°55km/h1805m4.9m/s16.2°C66.2%819.0hPa0V00:00:0000:00:0000:00:00
PU1XMG-162026-09-05 23:38:48-22.81024-43.2414799°46km/h1768m5.8m/s16.5°C65.3%822.1hPa0V00:00:0000:00:0000:00:00
PU1XMG-162026-09-05 23:38:43-22.81018-43.24204105°44km/h1736m6.6m/s16.7°C64.2%825.1hPa0V00:00:0000:00:0000:00:00
PU1XMG-162026-09-05 23:38:37-22.81002-43.24274112°42km/h1703m3.9m/s17.0°C63.5%828.6hPa0V00:00:0000:00:0000:00:00
PU1XMG-162026-09-05 23:38:33-22.80997-43.2432390°42km/h1674m8.1m/s17.0°C63.6%831.5hPa0V00:00:0000:00:0000:00:00
PU1XMG-162026-09-05 23:38:26-22.80985-43.24396104°33km/h1637m4.0m/s17.2°C62.5%835.2hPa0V00:00:0000:00:0000:00:00
PU1XMG-162026-09-05 23:38:21-22.80982-43.2444589°47km/h1613m6.7m/s17.0°C64.2%837.7hPa0V00:00:0000:00:0000:00:00
PU1XMG-162026-09-05 23:38:16-22.80976-43.2450797°35km/h1585m5.3m/s16.9°C66.4%840.4hPa0V00:00:0000:00:0000:00:00
PU1XMG-162026-09-05 23:38:10-22.80983-43.2457891°47km/h1548m5.9m/s16.3°C75.6%844.0hPa0V00:00:0000:00:0000:00:00
PU1XMG-162026-09-05 23:38:05-22.80980-43.24638102°44km/h1520m7.3m/s15.9°C82.1%846.7hPa0V00:00:0000:00:0000:00:00
PU1XMG-162026-09-05 23:37:59-22.80980-43.2470993°42km/h1480m7.4m/s15.8°C84.9%850.7hPa0V00:00:0000:00:0000:00:00
PU1XMG-162026-09-05 23:37:54-22.80979-43.2475999°29km/h1447m6.9m/s15.8°C86.8%853.9hPa0V00:00:0000:00:0000:00:00
PU1XMG-162026-09-05 23:37:48-22.80985-43.2481078°29km/h1410m6.0m/s15.9°C87.1%857.4hPa0V00:00:0000:00:0000:00:00
PU1XMG-162026-09-05 23:37:43-22.80986-43.2485696°31km/h1380m9.5m/s15.9°C89.2%860.4hPa0V00:00:0000:00:0000:00:00
PU1XMG-162026-09-05 23:37:37-22.80977-43.2489893°24km/h1341m6.8m/s15.9°C90.6%864.1hPa0V00:00:0000:00:0000:00:00
PU1XMG-162026-09-05 23:37:31-22.80979-43.2493883°22km/h1302m6.0m/s16.1°C90.0%868.3hPa0V00:00:0000:00:0000:00:00
PU1XMG-162026-09-05 23:37:25-22.80980-43.2497795°20km/h1267m4.2m/s16.3°C89.9%871.9hPa0V00:00:0000:00:0000:00:00
PU1XMG-162026-09-05 23:37:20-22.80984-43.2500091°15km/h1235m6.4m/s16.3°C90.3%875.1hPa0V00:00:0000:00:0000:00:00
PU1XMG-162026-09-05 23:37:15-22.80982-43.25021128°7km/h1201m4.4m/s16.6°C89.6%878.7hPa0V00:00:0000:00:0000:00:00
PU1XMG-162026-09-05 23:37:03-22.80960-43.25037151°11km/h1136m6.2m/s17.1°C87.4%885.6hPa0V00:00:0000:00:0000:00:00
PU1XMG-162026-09-05 23:36:57-22.80960-43.25044102°11km/h1105m5.2m/s17.4°C86.2%888.9hPa0V00:00:0000:00:0000:00:00
PU1XMG-162026-09-05 23:36:52-22.80947-43.25043237°18km/h1073m6.4m/s17.6°C85.6%892.0hPa0V00:00:0000:00:0000:00:00
PU1XMG-162026-09-05 23:36:47-22.80936-43.25025194°15km/h1043m5.8m/s17.8°C84.9%895.1hPa0V00:00:0000:00:0000:00:00
PU1XMG-162026-09-05 23:36:41-22.80905-43.25031173°24km/h1007m6.4m/s18.1°C83.5%898.9hPa0V00:00:0000:00:0000:00:00
PU1XMG-162026-09-05 23:36:35-22.80890-43.25035206°7km/h971m7.7m/s18.4°C81.9%902.3hPa0V00:00:0000:00:0000:00:00
PU1XMG-162026-09-05 23:36:30-22.80873-43.25026201°15km/h937m4.1m/s18.7°C80.8%905.9hPa0V00:00:0000:00:0000:00:00
PU1XMG-162026-09-05 23:36:24-22.80856-43.25027345°4km/h897m4.8m/s19.1°C79.1%910.2hPa0V00:00:0000:00:0000:00:00
PU1XMG-162026-09-05 23:36:18-22.80849-43.25019217°16km/h861m7.2m/s19.4°C0%0hPa0V00:00:0000:00:0000:00:00
PU1XMG-162026-09-05 23:36:13-22.80836-43.25016144°7km/h827m6.2m/s19.7°C0%0hPa0V00:00:0000:00:0000:00:00
PU1XMG-162026-09-05 23:36:07-22.80826-43.25016217°4km/h789m6.2m/s20.0°C0%0hPa0V00:00:0000:00:0000:00:00
PU1XMG-162026-09-05 23:36:01-22.80821-43.250144km/h750m7.9m/s20.2°C0%0hPa0V00:00:0000:00:0000:00:00
PU1XMG-162026-09-05 23:35:56-22.80824-43.25016160°5km/h722m5.6m/s20.4°C0%0hPa0V00:00:0000:00:0000:00:00
PU1XMG-162026-09-05 23:35:51-22.80821-43.2501419°5km/h692m5.1m/s20.5°C0%0hPa0V00:00:0000:00:0000:00:00
PU1XMG-162026-09-05 23:35:46-22.80820-43.25023124°11km/h663m4.9m/s0°C0%0hPa0V00:00:0000:00:0000:00:00
PU1XMG-162026-09-05 23:35:40-22.80820-43.25026273°9km/h631m4.5m/s0°C0%0hPa0V00:00:0000:00:0000:00:00
PU1XMG-162026-09-05 23:35:34-22.80824-43.25021331°4km/h591m7.8m/s0°C0%0hPa0V00:00:0000:00:0000:00:00
PU1XMG-162026-09-05 23:35:30-22.80825-43.25014202°7km/h562m4.4m/s0°C0%0hPa0V00:00:0000:00:0000:00:00
PU1XMG-162026-09-05 23:35:23-22.80822-43.2501618°7km/h522m6.0m/s0°C0%0hPa0V00:00:0000:00:0000:00:00
PU1XMG-162026-09-05 23:35:16-22.80834-43.25023271°7km/h481m5.1m/s0°C0%0hPa0V00:00:0000:00:0000:00:00
PU1XMG-162026-09-05 23:35:00-22.80832-43.25033167°2km/h391m4.2m/s0°C0%0hPa0V00:00:0000:00:0000:00:00
PU1XMG-162026-09-05 23:34:50-22.80836-43.25032318°11km/h330m5.4m/s0°C0%0hPa0V00:00:0000:00:0000:00:00


GPX KML Map

© wettersonde.net (DO2JMG) - 2026  -  -